Bookmark and Share
Track history (hours):
 

Colorado Star

Last reported at 2014-Apr-21 11:32 UTC. Time now 2014-Apr-21 12:17 UTC.
Position N 36°09' W 005°22'.

Length 128 m; draft 8.7 m.

Type: Ship. MMSI: 248127000.

NotesDate/timePositionNaut miles runAvg speedWind from/ knotsBaromVisibWave heightAir tempDewpointWater temp
2014-Apr-21 11:32N 36°09' W 005°22'0 0.1
2014-Apr-21 10:32N 36°09' W 005°22'0 0.0
2014-Apr-21 09:32N 36°09' W 005°22'0 0.0
2014-Apr-21 08:32N 36°09' W 005°22'0 0.1
2014-Apr-21 07:32N 36°09' W 005°22'1 1.0
2014-Apr-21 06:33N 36°08' W 005°22'6 6.2
2014-Apr-21 05:33N 36°06' W 005°15'2 2.4
2014-Apr-21 04:32N 36°07' W 005°12'0 0.1
2014-Apr-21 03:33N 36°07' W 005°12'0 0.3
2014-Apr-21 02:33N 36°07' W 005°13'8 8.0
2014-Apr-21 01:34N 36°00' W 005°18'1413.6
2014-Apr-21 00:32N 35°56' W 005°34'1211.8
2014-Apr-20 23:34N 35°55' W 005°48'  
2014-Apr-16 19:29N 49°59' W 002°58'13 9.6
2014-Apr-16 18:06N 50°03' W 002°38'610.6
2014-Apr-16 17:31N 50°05' W 002°29'1112.0
2014-Apr-16 16:34N 50°08' W 002°12'1513.9
2014-Apr-16 15:29N 50°12' W 001°49'1414.8
2014-Apr-16 14:33N 50°16' W 001°29'1514.7
2014-Apr-16 13:33N 50°20' W 001°07'1313.2
2014-Apr-16 12:33N 50°23' W 000°47'1110.9
2014-Apr-16 11:33N 50°26' W 000°30'1010.0
2014-Apr-16 10:33N 50°29' W 000°15'9 9.0
2014-Apr-16 09:33N 50°31' W 000°01'9 8.7
2014-Apr-16 08:33N 50°34' E 000°12'10 9.6
2014-Apr-16 07:33N 50°37' E 000°26'1111.3
2014-Apr-16 06:33N 50°42' E 000°42'1312.6
2014-Apr-16 05:33N 50°49' E 000°58'1412.1
2014-Apr-16 04:24N 50°58' E 001°15'911.1
2014-Apr-16 03:33N 51°04' E 001°27'9 9.2
2014-Apr-16 02:33N 51°10' E 001°38'8 8.3
2014-Apr-16 01:33N 51°16' E 001°47'9 8.8
2014-Apr-16 00:33N 51°24' E 001°53'1010.1
2014-Apr-15 23:33N 51°33' E 001°59'1312.1
2014-Apr-15 22:28N 51°45' E 002°08'1313.0
2014-Apr-15 21:26N 51°58' E 002°13'1112.6
2014-Apr-15 20:32N 52°09' E 002°18'1412.9
2014-Apr-15 19:25N 52°23' E 002°24'  
2014-Apr-12 06:19N 59°57' E 001°39'14411.9
2014-Apr-11 18:14N 58°49' W 002°31'812.3
2014-Apr-11 17:33N 58°45' W 002°45'1413.7
2014-Apr-11 16:33N 58°43' W 003°11'1212.2
2014-Apr-11 15:33N 58°43' W 003°35'1111.5
2014-Apr-11 14:33N 58°42' W 003°57'1211.6
2014-Apr-11 13:33N 58°42' W 004°19'  

Dump ship's entire track history

sailing weather and tide predictions

Colorado Star — 9HA2189 — position and weather